sensor_id;sensor_type;location;lat;lon;timestamp;temperature;humidity
61004;DHT22;46889;37.310;13.582;2023-03-01T00:02:05;10.10;99.90
61004;DHT22;46889;37.310;13.582;2023-03-01T00:04:33;10.20;99.90
61004;DHT22;46889;37.310;13.582;2023-03-01T00:07:01;10.20;99.90
61004;DHT22;46889;37.310;13.582;2023-03-01T00:09:27;10.20;99.90
61004;DHT22;46889;37.310;13.582;2023-03-01T00:11:53;10.20;99.90
61004;DHT22;46889;37.310;13.582;2023-03-01T00:14:20;10.20;99.90
61004;DHT22;46889;37.310;13.582;2023-03-01T00:16:46;10.10;99.90
61004;DHT22;46889;37.310;13.582;2023-03-01T00:19:15;10.10;99.90
61004;DHT22;46889;37.310;13.582;2023-03-01T00:21:42;10.20;99.90
61004;DHT22;46889;37.310;13.582;2023-03-01T00:24:10;10.20;99.90
61004;DHT22;46889;37.310;13.582;2023-03-01T00:26:37;10.30;99.90
61004;DHT22;46889;37.310;13.582;2023-03-01T00:29:04;10.20;99.90
61004;DHT22;46889;37.310;13.582;2023-03-01T00:31:32;10.30;99.90
61004;DHT22;46889;37.310;13.582;2023-03-01T00:34:02;10.30;99.90
61004;DHT22;46889;37.310;13.582;2023-03-01T00:36:35;10.30;99.90
61004;DHT22;46889;37.310;13.582;2023-03-01T00:39:04;10.30;99.90
61004;DHT22;46889;37.310;13.582;2023-03-01T00:41:30;10.30;99.90
61004;DHT22;46889;37.310;13.582;2023-03-01T00:43:57;10.30;99.90
61004;DHT22;46889;37.310;13.582;2023-03-01T00:46:25;10.30;99.90
61004;DHT22;46889;37.310;13.582;2023-03-01T00:48:52;10.30;99.90
61004;DHT22;46889;37.310;13.582;2023-03-01T00:51:21;10.20;99.90
61004;DHT22;46889;37.310;13.582;2023-03-01T00:53:54;10.20;99.90
61004;DHT22;46889;37.310;13.582;2023-03-01T00:56:22;10.20;99.90
61004;DHT22;46889;37.310;13.582;2023-03-01T00:58:49;10.20;99.90
61004;DHT22;46889;37.310;13.582;2023-03-01T01:01:26;10.20;99.90
61004;DHT22;46889;37.310;13.582;2023-03-01T01:04:05;10.20;99.90
61004;DHT22;46889;37.310;13.582;2023-03-01T01:06:36;10.10;99.90
61004;DHT22;46889;37.310;13.582;2023-03-01T01:09:05;10.10;99.90
61004;DHT22;46889;37.310;13.582;2023-03-01T01:11:33;10.00;99.90
61004;DHT22;46889;37.310;13.582;2023-03-01T01:14:00;10.00;99.90
61004;DHT22;46889;37.310;13.582;2023-03-01T01:16:27;9.90;99.90
61004;DHT22;46889;37.310;13.582;2023-03-01T01:18:54;9.90;99.90
61004;DHT22;46889;37.310;13.582;2023-03-01T01:21:23;9.90;99.90
61004;DHT22;46889;37.310;13.582;2023-03-01T01:23:51;9.70;99.90
61004;DHT22;46889;37.310;13.582;2023-03-01T01:26:25;9.70;99.90
61004;DHT22;46889;37.310;13.582;2023-03-01T01:28:52;9.60;99.90
61004;DHT22;46889;37.310;13.582;2023-03-01T01:31:19;9.60;99.90
61004;DHT22;46889;37.310;13.582;2023-03-01T01:33:48;9.50;99.90
61004;DHT22;46889;37.310;13.582;2023-03-01T01:36:14;9.50;99.90
61004;DHT22;46889;37.310;13.582;2023-03-01T01:38:40;9.40;99.90
61004;DHT22;46889;37.310;13.582;2023-03-01T01:41:10;9.40;99.90
61004;DHT22;46889;37.310;13.582;2023-03-01T01:43:42;9.50;99.90
61004;DHT22;46889;37.310;13.582;2023-03-01T01:46:33;9.50;99.90
61004;DHT22;46889;37.310;13.582;2023-03-01T01:49:18;9.60;99.90
61004;DHT22;46889;37.310;13.582;2023-03-01T01:51:58;9.60;99.90
61004;DHT22;46889;37.310;13.582;2023-03-01T01:54:38;9.60;99.90
61004;DHT22;46889;37.310;13.582;2023-03-01T01:57:11;9.60;99.90
61004;DHT22;46889;37.310;13.582;2023-03-01T01:59:43;9.60;99.90
61004;DHT22;46889;37.310;13.582;2023-03-01T02:02:13;9.60;99.90
61004;DHT22;46889;37.310;13.582;2023-03-01T02:04:42;9.60;99.90
61004;DHT22;46889;37.310;13.582;2023-03-01T02:07:22;9.60;99.90
61004;DHT22;46889;37.310;13.582;2023-03-01T02:09:50;9.60;99.90
61004;DHT22;46889;37.310;13.582;2023-03-01T02:12:23;9.70;99.90
61004;DHT22;46889;37.310;13.582;2023-03-01T02:14:50;9.60;99.90
61004;DHT22;46889;37.310;13.582;2023-03-01T02:17:18;9.60;99.90
61004;DHT22;46889;37.310;13.582;2023-03-01T02:22:45;9.50;99.90
61004;DHT22;46889;37.310;13.582;2023-03-01T02:28:24;9.30;99.90
61004;DHT22;46889;37.310;13.582;2023-03-01T02:30:51;9.20;99.90
61004;DHT22;46889;37.310;13.582;2023-03-01T02:33:38;9.20;99.90
61004;DHT22;46889;37.310;13.582;2023-03-01T02:36:08;9.20;99.90
61004;DHT22;46889;37.310;13.582;2023-03-01T02:38:35;9.10;99.90
61004;DHT22;46889;37.310;13.582;2023-03-01T02:41:02;9.10;99.90
61004;DHT22;46889;37.310;13.582;2023-03-01T02:43:32;9.10;99.90
61004;DHT22;46889;37.310;13.582;2023-03-01T02:46:07;9.10;99.90
61004;DHT22;46889;37.310;13.582;2023-03-01T02:48:50;9.00;99.90
61004;DHT22;46889;37.310;13.582;2023-03-01T02:51:34;8.90;99.90
61004;DHT22;46889;37.310;13.582;2023-03-01T02:54:26;8.90;99.90
61004;DHT22;46889;37.310;13.582;2023-03-01T02:56:53;8.80;99.90
61004;DHT22;46889;37.310;13.582;2023-03-01T02:59:22;8.80;99.90
61004;DHT22;46889;37.310;13.582;2023-03-01T03:01:50;8.80;99.90
61004;DHT22;46889;37.310;13.582;2023-03-01T03:04:18;8.70;99.90
61004;DHT22;46889;37.310;13.582;2023-03-01T03:06:45;8.70;99.90
61004;DHT22;46889;37.310;13.582;2023-03-01T03:09:12;8.80;99.90
61004;DHT22;46889;37.310;13.582;2023-03-01T03:11:38;8.80;99.90
61004;DHT22;46889;37.310;13.582;2023-03-01T03:14:07;8.90;99.90
61004;DHT22;46889;37.310;13.582;2023-03-01T03:16:43;8.80;99.90
61004;DHT22;46889;37.310;13.582;2023-03-01T03:19:10;8.80;99.90
61004;DHT22;46889;37.310;13.582;2023-03-01T03:21:37;8.80;99.90
61004;DHT22;46889;37.310;13.582;2023-03-01T03:24:04;8.80;99.90
61004;DHT22;46889;37.310;13.582;2023-03-01T03:26:30;8.70;99.90
61004;DHT22;46889;37.310;13.582;2023-03-01T03:28:56;8.70;99.90
61004;DHT22;46889;37.310;13.582;2023-03-01T03:31:22;8.70;99.90
61004;DHT22;46889;37.310;13.582;2023-03-01T03:33:48;8.70;99.90
61004;DHT22;46889;37.310;13.582;2023-03-01T03:36:16;8.70;99.90
61004;DHT22;46889;37.310;13.582;2023-03-01T03:38:44;8.70;99.90
61004;DHT22;46889;37.310;13.582;2023-03-01T03:41:11;8.70;99.90
61004;DHT22;46889;37.310;13.582;2023-03-01T03:43:39;8.70;99.90
61004;DHT22;46889;37.310;13.582;2023-03-01T03:46:06;8.80;99.90
61004;DHT22;46889;37.310;13.582;2023-03-01T03:48:37;8.80;99.90
61004;DHT22;46889;37.310;13.582;2023-03-01T03:51:04;8.80;99.90
61004;DHT22;46889;37.310;13.582;2023-03-01T03:53:33;8.80;99.90
61004;DHT22;46889;37.310;13.582;2023-03-01T03:56:00;8.90;99.90
61004;DHT22;46889;37.310;13.582;2023-03-01T03:58:26;8.90;99.90
61004;DHT22;46889;37.310;13.582;2023-03-01T04:00:54;8.90;99.90
61004;DHT22;46889;37.310;13.582;2023-03-01T04:03:26;8.90;99.90
61004;DHT22;46889;37.310;13.582;2023-03-01T04:05:52;8.90;99.90
61004;DHT22;46889;37.310;13.582;2023-03-01T04:08:22;8.90;99.90
61004;DHT22;46889;37.310;13.582;2023-03-01T04:10:52;8.90;99.90
61004;DHT22;46889;37.310;13.582;2023-03-01T04:13:22;8.90;99.90
61004;DHT22;46889;37.310;13.582;2023-03-01T04:15:52;8.90;99.90
61004;DHT22;46889;37.310;13.582;2023-03-01T04:18:20;8.90;99.90
61004;DHT22;46889;37.310;13.582;2023-03-01T04:20:47;8.90;99.90
61004;DHT22;46889;37.310;13.582;2023-03-01T04:23:19;8.90;99.90
61004;DHT22;46889;37.310;13.582;2023-03-01T04:25:58;8.90;99.90
61004;DHT22;46889;37.310;13.582;2023-03-01T04:28:27;8.90;99.90
61004;DHT22;46889;37.310;13.582;2023-03-01T04:30:57;9.00;99.90
61004;DHT22;46889;37.310;13.582;2023-03-01T04:33:28;9.00;99.90
61004;DHT22;46889;37.310;13.582;2023-03-01T04:35:54;9.10;99.90
61004;DHT22;46889;37.310;13.582;2023-03-01T04:38:20;9.10;99.90
61004;DHT22;46889;37.310;13.582;2023-03-01T04:40:50;9.10;99.90
61004;DHT22;46889;37.310;13.582;2023-03-01T04:43:16;9.10;99.90
61004;DHT22;46889;37.310;13.582;2023-03-01T04:45:43;9.10;99.90
61004;DHT22;46889;37.310;13.582;2023-03-01T04:48:09;9.10;99.90
61004;DHT22;46889;37.310;13.582;2023-03-01T04:50:35;9.10;99.90
61004;DHT22;46889;37.310;13.582;2023-03-01T04:53:01;9.00;99.90
61004;DHT22;46889;37.310;13.582;2023-03-01T04:55:29;9.00;99.90
61004;DHT22;46889;37.310;13.582;2023-03-01T04:57:55;9.00;99.90
61004;DHT22;46889;37.310;13.582;2023-03-01T05:00:22;9.10;99.90
61004;DHT22;46889;37.310;13.582;2023-03-01T05:02:53;9.10;99.90
61004;DHT22;46889;37.310;13.582;2023-03-01T05:05:28;9.10;99.90
61004;DHT22;46889;37.310;13.582;2023-03-01T05:07:57;9.10;99.90
61004;DHT22;46889;37.310;13.582;2023-03-01T05:10:28;9.10;99.90
61004;DHT22;46889;37.310;13.582;2023-03-01T05:12:58;9.10;99.90
61004;DHT22;46889;37.310;13.582;2023-03-01T05:15:26;9.10;99.90
61004;DHT22;46889;37.310;13.582;2023-03-01T05:17:54;9.10;99.90
61004;DHT22;46889;37.310;13.582;2023-03-01T05:20:21;9.20;99.90
61004;DHT22;46889;37.310;13.582;2023-03-01T05:22:52;9.20;99.90
61004;DHT22;46889;37.310;13.582;2023-03-01T05:25:18;9.20;99.90
61004;DHT22;46889;37.310;13.582;2023-03-01T05:27:44;9.20;99.90
61004;DHT22;46889;37.310;13.582;2023-03-01T05:30:15;9.20;99.90
61004;DHT22;46889;37.310;13.582;2023-03-01T05:32:48;9.10;99.90
61004;DHT22;46889;37.310;13.582;2023-03-01T05:35:16;9.20;99.90
61004;DHT22;46889;37.310;13.582;2023-03-01T05:37:47;9.20;99.90
61004;DHT22;46889;37.310;13.582;2023-03-01T05:40:18;9.20;99.90
61004;DHT22;46889;37.310;13.582;2023-03-01T05:42:55;9.10;99.90
61004;DHT22;46889;37.310;13.582;2023-03-01T05:45:26;9.10;99.90
61004;DHT22;46889;37.310;13.582;2023-03-01T05:47:54;9.00;99.90
61004;DHT22;46889;37.310;13.582;2023-03-01T05:50:25;9.00;99.90
61004;DHT22;46889;37.310;13.582;2023-03-01T05:52:56;8.90;99.90
61004;DHT22;46889;37.310;13.582;2023-03-01T05:55:24;8.90;99.90
61004;DHT22;46889;37.310;13.582;2023-03-01T05:57:50;8.90;99.90
61004;DHT22;46889;37.310;13.582;2023-03-01T06:00:18;9.00;99.90
61004;DHT22;46889;37.310;13.582;2023-03-01T06:02:45;9.10;99.90
61004;DHT22;46889;37.310;13.582;2023-03-01T06:05:14;9.20;99.90
61004;DHT22;46889;37.310;13.582;2023-03-01T06:07:41;9.30;99.90
61004;DHT22;46889;37.310;13.582;2023-03-01T06:10:09;9.20;99.90
61004;DHT22;46889;37.310;13.582;2023-03-01T06:12:37;9.60;99.90
61004;DHT22;46889;37.310;13.582;2023-03-01T06:15:05;9.70;99.90
61004;DHT22;46889;37.310;13.582;2023-03-01T06:17:33;9.60;99.90
61004;DHT22;46889;37.310;13.582;2023-03-01T06:20:14;9.80;99.90
61004;DHT22;46889;37.310;13.582;2023-03-01T06:22:43;10.60;99.90
61004;DHT22;46889;37.310;13.582;2023-03-01T06:25:10;11.70;99.90
61004;DHT22;46889;37.310;13.582;2023-03-01T06:27:40;12.50;99.90
61004;DHT22;46889;37.310;13.582;2023-03-01T06:30:08;13.50;99.90
61004;DHT22;46889;37.310;13.582;2023-03-01T06:32:36;14.20;99.90
61004;DHT22;46889;37.310;13.582;2023-03-01T06:35:04;15.40;99.90
61004;DHT22;46889;37.310;13.582;2023-03-01T06:37:32;16.30;99.90
61004;DHT22;46889;37.310;13.582;2023-03-01T06:39:58;17.20;99.90
61004;DHT22;46889;37.310;13.582;2023-03-01T06:42:24;17.20;99.90
61004;DHT22;46889;37.310;13.582;2023-03-01T06:44:50;16.80;99.90
61004;DHT22;46889;37.310;13.582;2023-03-01T06:47:16;15.10;99.90
61004;DHT22;46889;37.310;13.582;2023-03-01T06:49:42;15.10;99.90
61004;DHT22;46889;37.310;13.582;2023-03-01T06:52:09;16.10;99.90
61004;DHT22;46889;37.310;13.582;2023-03-01T06:54:35;17.10;99.90
61004;DHT22;46889;37.310;13.582;2023-03-01T06:57:01;16.30;99.90
61004;DHT22;46889;37.310;13.582;2023-03-01T06:59:27;15.80;99.90
61004;DHT22;46889;37.310;13.582;2023-03-01T07:01:53;16.00;99.90
61004;DHT22;46889;37.310;13.582;2023-03-01T07:04:19;15.60;99.90
61004;DHT22;46889;37.310;13.582;2023-03-01T07:06:45;15.10;99.90
61004;DHT22;46889;37.310;13.582;2023-03-01T07:09:11;14.30;99.90
61004;DHT22;46889;37.310;13.582;2023-03-01T07:11:38;13.90;99.90
61004;DHT22;46889;37.310;13.582;2023-03-01T07:14:04;14.90;99.90
61004;DHT22;46889;37.310;13.582;2023-03-01T07:16:32;15.90;99.90
61004;DHT22;46889;37.310;13.582;2023-03-01T07:18:58;16.80;99.90
61004;DHT22;46889;37.310;13.582;2023-03-01T07:21:25;16.10;99.90
61004;DHT22;46889;37.310;13.582;2023-03-01T07:23:52;16.00;99.90
61004;DHT22;46889;37.310;13.582;2023-03-01T07:26:18;16.50;99.90
61004;DHT22;46889;37.310;13.582;2023-03-01T07:28:45;16.60;99.90
61004;DHT22;46889;37.310;13.582;2023-03-01T07:31:11;16.70;99.90
61004;DHT22;46889;37.310;13.582;2023-03-01T07:33:38;16.50;99.90
61004;DHT22;46889;37.310;13.582;2023-03-01T07:36:07;16.70;99.90
61004;DHT22;46889;37.310;13.582;2023-03-01T07:38:33;16.50;99.90
61004;DHT22;46889;37.310;13.582;2023-03-01T08:27:34;15.50;99.90
61004;DHT22;46889;37.310;13.582;2023-03-01T08:30:02;15.50;99.90
61004;DHT22;46889;37.310;13.582;2023-03-01T08:32:29;15.60;99.90
61004;DHT22;46889;37.310;13.582;2023-03-01T08:34:57;15.00;99.90
61004;DHT22;46889;37.310;13.582;2023-03-01T08:37:23;15.40;99.90
61004;DHT22;46889;37.310;13.582;2023-03-01T08:39:50;15.60;99.90
61004;DHT22;46889;37.310;13.582;2023-03-01T08:42:16;15.00;99.90
61004;DHT22;46889;37.310;13.582;2023-03-01T08:44:46;15.50;99.90
61004;DHT22;46889;37.310;13.582;2023-03-01T08:47:13;15.80;99.90
61004;DHT22;46889;37.310;13.582;2023-03-01T08:49:39;15.50;99.90
61004;DHT22;46889;37.310;13.582;2023-03-01T08:52:05;15.90;99.90
61004;DHT22;46889;37.310;13.582;2023-03-01T08:54:31;15.90;99.90
61004;DHT22;46889;37.310;13.582;2023-03-01T08:56:58;15.30;99.90
61004;DHT22;46889;37.310;13.582;2023-03-01T08:59:26;15.00;99.90
61004;DHT22;46889;37.310;13.582;2023-03-01T09:01:52;15.00;99.90
61004;DHT22;46889;37.310;13.582;2023-03-01T09:04:19;15.10;99.90
61004;DHT22;46889;37.310;13.582;2023-03-01T09:06:45;15.70;99.90
61004;DHT22;46889;37.310;13.582;2023-03-01T09:09:14;15.80;99.90
61004;DHT22;46889;37.310;13.582;2023-03-01T09:11:42;15.70;99.90
61004;DHT22;46889;37.310;13.582;2023-03-01T09:14:09;15.60;99.90
61004;DHT22;46889;37.310;13.582;2023-03-01T09:16:35;15.60;99.90
61004;DHT22;46889;37.310;13.582;2023-03-01T09:19:02;15.50;99.90
61004;DHT22;46889;37.310;13.582;2023-03-01T09:21:29;15.40;99.90
61004;DHT22;46889;37.310;13.582;2023-03-01T09:23:56;15.00;99.90
61004;DHT22;46889;37.310;13.582;2023-03-01T09:26:23;15.10;99.90
61004;DHT22;46889;37.310;13.582;2023-03-01T09:28:52;15.00;99.90
61004;DHT22;46889;37.310;13.582;2023-03-01T09:31:23;14.70;99.90
61004;DHT22;46889;37.310;13.582;2023-03-01T09:33:54;14.50;99.90
61004;DHT22;46889;37.310;13.582;2023-03-01T09:36:23;14.50;99.90
61004;DHT22;46889;37.310;13.582;2023-03-01T09:38:51;14.80;99.90
61004;DHT22;46889;37.310;13.582;2023-03-01T09:44:13;15.00;99.90
61004;DHT22;46889;37.310;13.582;2023-03-01T09:46:43;15.20;99.90
61004;DHT22;46889;37.310;13.582;2023-03-01T09:49:29;15.00;99.90
61004;DHT22;46889;37.310;13.582;2023-03-01T09:54:47;15.00;99.90
61004;DHT22;46889;37.310;13.582;2023-03-01T09:57:20;14.90;99.90
61004;DHT22;46889;37.310;13.582;2023-03-01T10:00:18;15.10;99.90
61004;DHT22;46889;37.310;13.582;2023-03-01T10:02:48;15.30;99.90
61004;DHT22;46889;37.310;13.582;2023-03-01T10:05:27;15.40;99.90
61004;DHT22;46889;37.310;13.582;2023-03-01T10:08:14;15.50;99.90
61004;DHT22;46889;37.310;13.582;2023-03-01T10:10:46;15.30;99.90
61004;DHT22;46889;37.310;13.582;2023-03-01T10:17:03;15.30;99.90
61004;DHT22;46889;37.310;13.582;2023-03-01T10:19:44;15.40;99.90
61004;DHT22;46889;37.310;13.582;2023-03-01T10:22:28;15.10;99.90
61004;DHT22;46889;37.310;13.582;2023-03-01T10:24:57;15.10;99.90
61004;DHT22;46889;37.310;13.582;2023-03-01T10:27:34;15.30;99.90
61004;DHT22;46889;37.310;13.582;2023-03-01T10:32:43;15.80;99.90
61004;DHT22;46889;37.310;13.582;2023-03-01T10:40:28;15.40;99.90
61004;DHT22;46889;37.310;13.582;2023-03-01T10:42:58;15.70;99.90
61004;DHT22;46889;37.310;13.582;2023-03-01T10:48:22;15.80;99.90
61004;DHT22;46889;37.310;13.582;2023-03-01T10:51:06;15.70;99.90
61004;DHT22;46889;37.310;13.582;2023-03-01T10:56:11;15.90;99.90
61004;DHT22;46889;37.310;13.582;2023-03-01T10:59:02;16.00;99.90
61004;DHT22;46889;37.310;13.582;2023-03-01T11:01:33;15.90;99.90
61004;DHT22;46889;37.310;13.582;2023-03-01T11:04:17;16.10;99.90
61004;DHT22;46889;37.310;13.582;2023-03-01T11:06:59;16.20;99.90
61004;DHT22;46889;37.310;13.582;2023-03-01T11:09:25;15.70;99.90
61004;DHT22;46889;37.310;13.582;2023-03-01T11:11:57;15.70;99.90
61004;DHT22;46889;37.310;13.582;2023-03-01T11:14:45;15.70;99.90
61004;DHT22;46889;37.310;13.582;2023-03-01T11:17:27;16.00;99.90
61004;DHT22;46889;37.310;13.582;2023-03-01T11:22:54;15.20;99.90
61004;DHT22;46889;37.310;13.582;2023-03-01T11:25:26;15.40;99.90
61004;DHT22;46889;37.310;13.582;2023-03-01T11:27:55;15.90;99.90
61004;DHT22;46889;37.310;13.582;2023-03-01T11:30:37;16.00;99.90
61004;DHT22;46889;37.310;13.582;2023-03-01T11:36:04;15.90;99.90
61004;DHT22;46889;37.310;13.582;2023-03-01T11:38:36;15.90;99.90
61004;DHT22;46889;37.310;13.582;2023-03-01T11:41:16;15.70;99.90
61004;DHT22;46889;37.310;13.582;2023-03-01T11:44:16;15.90;99.90
61004;DHT22;46889;37.310;13.582;2023-03-01T11:50:05;15.90;99.90
61004;DHT22;46889;37.310;13.582;2023-03-01T11:52:57;16.00;99.90
61004;DHT22;46889;37.310;13.582;2023-03-01T12:06:52;16.30;99.90
61004;DHT22;46889;37.310;13.582;2023-03-01T12:18:08;16.20;99.90
61004;DHT22;46889;37.310;13.582;2023-03-01T12:20:58;16.10;99.90
61004;DHT22;46889;37.310;13.582;2023-03-01T12:23:55;15.90;99.90
61004;DHT22;46889;37.310;13.582;2023-03-01T12:26:31;15.70;99.90
61004;DHT22;46889;37.310;13.582;2023-03-01T12:40:21;16.40;99.90
61004;DHT22;46889;37.310;13.582;2023-03-01T12:45:50;16.50;99.90
61004;DHT22;46889;37.310;13.582;2023-03-01T12:51:25;16.60;99.90
61004;DHT22;46889;37.310;13.582;2023-03-01T12:53:56;16.70;99.90
61004;DHT22;46889;37.310;13.582;2023-03-01T12:56:29;16.70;99.90
61004;DHT22;46889;37.310;13.582;2023-03-01T12:59:22;16.70;99.90
61004;DHT22;46889;37.310;13.582;2023-03-01T13:08:01;15.90;99.90
61004;DHT22;46889;37.310;13.582;2023-03-01T13:10:40;16.20;99.90
61004;DHT22;46889;37.310;13.582;2023-03-01T13:13:23;16.20;99.90
61004;DHT22;46889;37.310;13.582;2023-03-01T13:15:54;16.10;99.90
61004;DHT22;46889;37.310;13.582;2023-03-01T13:20:59;16.30;99.90
61004;DHT22;46889;37.310;13.582;2023-03-01T13:23:26;16.20;99.90
61004;DHT22;46889;37.310;13.582;2023-03-01T13:26:17;16.30;99.90
61004;DHT22;46889;37.310;13.582;2023-03-01T13:37:21;16.20;99.90
61004;DHT22;46889;37.310;13.582;2023-03-01T13:39:47;15.80;99.90
61004;DHT22;46889;37.310;13.582;2023-03-01T13:42:40;15.80;99.90
61004;DHT22;46889;37.310;13.582;2023-03-01T13:45:16;15.90;99.90
61004;DHT22;46889;37.310;13.582;2023-03-01T13:47:46;15.90;99.90
61004;DHT22;46889;37.310;13.582;2023-03-01T13:50:23;16.00;99.90
61004;DHT22;46889;37.310;13.582;2023-03-01T13:52:56;15.90;99.90
61004;DHT22;46889;37.310;13.582;2023-03-01T13:55:51;15.80;99.90
61004;DHT22;46889;37.310;13.582;2023-03-01T13:58:28;15.70;99.90
61004;DHT22;46889;37.310;13.582;2023-03-01T14:00:58;15.90;99.90
61004;DHT22;46889;37.310;13.582;2023-03-01T14:03:27;16.00;99.90
61004;DHT22;46889;37.310;13.582;2023-03-01T14:06:18;15.80;99.90
61004;DHT22;46889;37.310;13.582;2023-03-01T14:08:46;15.70;99.90
61004;DHT22;46889;37.310;13.582;2023-03-01T14:19:18;15.30;99.90
61004;DHT22;46889;37.310;13.582;2023-03-01T14:21:47;15.20;99.90
61004;DHT22;46889;37.310;13.582;2023-03-01T14:24:40;15.10;99.90
61004;DHT22;46889;37.310;13.582;2023-03-01T14:27:11;15.30;99.90
61004;DHT22;46889;37.310;13.582;2023-03-01T14:29:39;15.20;99.90
61004;DHT22;46889;37.310;13.582;2023-03-01T14:32:19;15.30;99.90
61004;DHT22;46889;37.310;13.582;2023-03-01T14:34:48;15.30;99.90
61004;DHT22;46889;37.310;13.582;2023-03-01T14:37:21;15.40;99.90
61004;DHT22;46889;37.310;13.582;2023-03-01T14:39:50;15.30;99.90
61004;DHT22;46889;37.310;13.582;2023-03-01T14:42:18;15.30;99.90
61004;DHT22;46889;37.310;13.582;2023-03-01T14:44:50;15.20;99.90
61004;DHT22;46889;37.310;13.582;2023-03-01T14:47:32;15.40;99.90
61004;DHT22;46889;37.310;13.582;2023-03-01T14:50:04;15.50;99.90
61004;DHT22;46889;37.310;13.582;2023-03-01T14:52:35;15.50;99.90
61004;DHT22;46889;37.310;13.582;2023-03-01T14:55:05;15.60;99.90
61004;DHT22;46889;37.310;13.582;2023-03-01T14:57:31;15.50;99.90
61004;DHT22;46889;37.310;13.582;2023-03-01T14:59:59;15.40;99.90
61004;DHT22;46889;37.310;13.582;2023-03-01T15:02:29;15.50;99.90
61004;DHT22;46889;37.310;13.582;2023-03-01T15:04:58;15.70;99.90
61004;DHT22;46889;37.310;13.582;2023-03-01T15:07:35;15.20;99.90
61004;DHT22;46889;37.310;13.582;2023-03-01T15:10:04;15.10;99.90
61004;DHT22;46889;37.310;13.582;2023-03-01T15:14:57;14.90;99.90
61004;DHT22;46889;37.310;13.582;2023-03-01T15:17:48;14.80;99.90
61004;DHT22;46889;37.310;13.582;2023-03-01T15:20:18;15.10;99.90
61004;DHT22;46889;37.310;13.582;2023-03-01T15:23:12;15.00;99.90
61004;DHT22;46889;37.310;13.582;2023-03-01T15:25:44;15.00;99.90
61004;DHT22;46889;37.310;13.582;2023-03-01T15:28:18;15.10;99.90
61004;DHT22;46889;37.310;13.582;2023-03-01T15:31:06;15.10;99.90
61004;DHT22;46889;37.310;13.582;2023-03-01T15:33:49;15.20;99.90
61004;DHT22;46889;37.310;13.582;2023-03-01T15:36:44;15.00;99.90
61004;DHT22;46889;37.310;13.582;2023-03-01T15:39:39;14.90;99.90
61004;DHT22;46889;37.310;13.582;2023-03-01T15:47:48;14.90;99.90
61004;DHT22;46889;37.310;13.582;2023-03-01T15:50:22;14.60;99.90
61004;DHT22;46889;37.310;13.582;2023-03-01T15:53:11;14.40;99.90
61004;DHT22;46889;37.310;13.582;2023-03-01T15:55:40;14.40;99.90
61004;DHT22;46889;37.310;13.582;2023-03-01T15:58:13;14.30;99.90
61004;DHT22;46889;37.310;13.582;2023-03-01T16:00:39;14.30;99.90
61004;DHT22;46889;37.310;13.582;2023-03-01T16:03:06;14.20;99.90
61004;DHT22;46889;37.310;13.582;2023-03-01T16:05:38;14.10;99.90
61004;DHT22;46889;37.310;13.582;2023-03-01T16:08:08;14.20;99.90
61004;DHT22;46889;37.310;13.582;2023-03-01T16:10:35;14.30;99.90
61004;DHT22;46889;37.310;13.582;2023-03-01T16:13:01;14.30;99.90
61004;DHT22;46889;37.310;13.582;2023-03-01T16:15:31;14.30;99.90
61004;DHT22;46889;37.310;13.582;2023-03-01T16:17:58;14.20;99.90
61004;DHT22;46889;37.310;13.582;2023-03-01T16:20:25;14.00;99.90
61004;DHT22;46889;37.310;13.582;2023-03-01T16:22:52;13.90;99.90
61004;DHT22;46889;37.310;13.582;2023-03-01T16:25:19;13.90;99.90
61004;DHT22;46889;37.310;13.582;2023-03-01T16:27:48;13.90;99.90
61004;DHT22;46889;37.310;13.582;2023-03-01T16:30:19;13.80;99.90
61004;DHT22;46889;37.310;13.582;2023-03-01T16:32:46;13.60;99.90
61004;DHT22;46889;37.310;13.582;2023-03-01T16:35:33;13.60;99.90
61004;DHT22;46889;37.310;13.582;2023-03-01T16:38:04;13.50;99.90
61004;DHT22;46889;37.310;13.582;2023-03-01T16:40:31;13.50;99.90
61004;DHT22;46889;37.310;13.582;2023-03-01T16:42:57;13.50;99.90
61004;DHT22;46889;37.310;13.582;2023-03-01T16:45:34;13.50;99.90
61004;DHT22;46889;37.310;13.582;2023-03-01T16:48:02;13.40;99.90
61004;DHT22;46889;37.310;13.582;2023-03-01T16:50:33;13.30;99.90
61004;DHT22;46889;37.310;13.582;2023-03-01T16:52:59;13.20;99.90
61004;DHT22;46889;37.310;13.582;2023-03-01T16:55:26;13.20;99.90
61004;DHT22;46889;37.310;13.582;2023-03-01T16:58:13;13.20;99.90
61004;DHT22;46889;37.310;13.582;2023-03-01T17:00:41;13.10;99.90
61004;DHT22;46889;37.310;13.582;2023-03-01T17:03:07;13.10;99.90
61004;DHT22;46889;37.310;13.582;2023-03-01T17:05:33;13.00;99.90
61004;DHT22;46889;37.310;13.582;2023-03-01T17:08:19;13.10;99.90
61004;DHT22;46889;37.310;13.582;2023-03-01T17:10:45;13.00;99.90
61004;DHT22;46889;37.310;13.582;2023-03-01T17:13:11;13.00;99.90
61004;DHT22;46889;37.310;13.582;2023-03-01T17:15:41;13.10;99.90
61004;DHT22;46889;37.310;13.582;2023-03-01T17:18:08;13.10;99.90
61004;DHT22;46889;37.310;13.582;2023-03-01T17:20:35;13.10;99.90
61004;DHT22;46889;37.310;13.582;2023-03-01T17:23:04;13.00;99.90
61004;DHT22;46889;37.310;13.582;2023-03-01T17:25:30;13.00;99.90
61004;DHT22;46889;37.310;13.582;2023-03-01T17:27:57;12.90;99.90
61004;DHT22;46889;37.310;13.582;2023-03-01T17:30:26;12.80;99.90
61004;DHT22;46889;37.310;13.582;2023-03-01T17:32:55;12.80;99.90
61004;DHT22;46889;37.310;13.582;2023-03-01T17:35:21;12.90;99.90
61004;DHT22;46889;37.310;13.582;2023-03-01T17:37:47;12.90;99.90
61004;DHT22;46889;37.310;13.582;2023-03-01T17:40:14;12.90;99.90
61004;DHT22;46889;37.310;13.582;2023-03-01T17:42:41;12.90;99.90
61004;DHT22;46889;37.310;13.582;2023-03-01T17:45:08;12.90;99.90
61004;DHT22;46889;37.310;13.582;2023-03-01T17:47:34;13.00;99.90
61004;DHT22;46889;37.310;13.582;2023-03-01T17:50:01;12.90;99.90
61004;DHT22;46889;37.310;13.582;2023-03-01T17:52:29;12.90;99.90
61004;DHT22;46889;37.310;13.582;2023-03-01T17:54:55;12.90;99.90
61004;DHT22;46889;37.310;13.582;2023-03-01T17:57:23;12.90;99.90
61004;DHT22;46889;37.310;13.582;2023-03-01T17:59:50;13.00;99.90
61004;DHT22;46889;37.310;13.582;2023-03-01T18:02:16;13.00;99.90
61004;DHT22;46889;37.310;13.582;2023-03-01T18:04:44;13.00;99.90
61004;DHT22;46889;37.310;13.582;2023-03-01T18:07:10;13.00;99.90
61004;DHT22;46889;37.310;13.582;2023-03-01T18:09:36;13.00;99.90
61004;DHT22;46889;37.310;13.582;2023-03-01T18:12:02;13.00;99.90
61004;DHT22;46889;37.310;13.582;2023-03-01T18:14:29;13.00;99.90
61004;DHT22;46889;37.310;13.582;2023-03-01T18:16:59;13.00;99.90
61004;DHT22;46889;37.310;13.582;2023-03-01T18:19:27;12.90;99.90